createdAt,value
2019-02-26T00:01:04.315Z,17.57
2019-02-26T00:03:36.025Z,17.58
2019-02-26T00:06:07.827Z,17.59
2019-02-26T00:08:39.461Z,17.53
2019-02-26T00:11:11.494Z,17.51
2019-02-26T00:13:43.345Z,17.52
2019-02-26T00:16:18.379Z,17.52
2019-02-26T00:18:50.344Z,17.51
2019-02-26T00:21:22.722Z,17.51
2019-02-26T00:23:54.556Z,17.51
2019-02-26T00:26:26.328Z,17.51
2019-02-26T00:28:59.687Z,17.51
2019-02-26T00:31:30.538Z,17.46
2019-02-26T00:34:02.326Z,17.41
2019-02-26T00:36:35.922Z,17.41
2019-02-26T00:39:08.272Z,17.48
2019-02-26T00:41:40.415Z,17.45
2019-02-26T00:44:12.322Z,17.39
2019-02-26T00:46:44.390Z,17.39
2019-02-26T00:49:16.068Z,17.45
2019-02-26T00:51:48.389Z,17.44
2019-02-26T00:54:24.301Z,17.47
2019-02-26T00:56:57.023Z,17.42
2019-02-26T00:59:28.313Z,17.42
2019-02-26T01:01:59.864Z,17.39
2019-02-26T01:04:31.661Z,17.40
2019-02-26T01:07:05.475Z,17.39
2019-02-26T01:09:36.501Z,17.36
2019-02-26T01:12:09.140Z,17.36
2019-02-26T01:14:43.588Z,17.42
2019-02-26T01:17:16.970Z,17.38
2019-02-26T01:19:49.330Z,17.40
2019-02-26T01:22:21.094Z,17.34
2019-02-26T01:24:54.210Z,17.36
2019-02-26T01:27:26.779Z,17.41
2019-02-26T01:30:00.408Z,17.37
2019-02-26T01:32:31.481Z,17.34
2019-02-26T01:35:05.488Z,17.33
2019-02-26T01:37:36.822Z,17.34
2019-02-26T01:40:13.731Z,17.32
2019-02-26T01:42:47.547Z,17.30
2019-02-26T01:45:19.615Z,17.31
2019-02-26T01:47:52.800Z,17.27
2019-02-26T01:50:24.788Z,17.28
2019-02-26T01:52:58.519Z,17.30
2019-02-26T01:55:29.808Z,17.33
2019-02-26T01:58:01.602Z,17.27
2019-02-26T02:00:33.344Z,17.27
2019-02-26T02:03:04.881Z,17.27
2019-02-26T02:05:36.414Z,17.28
2019-02-26T02:08:11.039Z,17.24
2019-02-26T02:10:41.816Z,17.25
2019-02-26T02:13:13.781Z,17.24
2019-02-26T02:15:46.478Z,17.23
2019-02-26T02:18:20.560Z,17.21
2019-02-26T02:20:51.814Z,17.20
2019-02-26T02:23:25.687Z,17.18
2019-02-26T02:25:59.948Z,17.21
2019-02-26T02:28:31.485Z,17.21
2019-02-26T02:31:04.469Z,17.20
2019-02-26T02:33:37.462Z,17.16
2019-02-26T02:36:11.535Z,17.18
2019-02-26T02:38:42.586Z,17.19
2019-02-26T02:41:14.318Z,17.17
2019-02-26T02:43:45.879Z,17.17
2019-02-26T02:46:17.834Z,17.16
2019-02-26T02:48:49.505Z,17.12
2019-02-26T02:51:21.847Z,17.14
2019-02-26T02:53:56.463Z,17.13
2019-02-26T02:56:27.343Z,17.14
2019-02-26T02:58:58.905Z,17.14
2019-02-26T03:01:30.805Z,17.04
2019-02-26T03:04:01.524Z,17.10
2019-02-26T03:06:35.352Z,17.12
2019-02-26T03:09:15.256Z,17.12
2019-02-26T03:11:47.141Z,17.12
2019-02-26T03:14:20.013Z,17.19
2019-02-26T03:16:53.479Z,17.11
2019-02-26T03:19:25.810Z,17.09
2019-02-26T03:21:57.835Z,17.09
2019-02-26T03:24:31.390Z,17.18
2019-02-26T03:27:03.470Z,17.15
2019-02-26T03:29:35.295Z,17.12
2019-02-26T03:32:07.108Z,17.16
2019-02-26T03:34:38.808Z,17.17
2019-02-26T03:37:11.060Z,17.12
2019-02-26T03:39:43.313Z,17.09
2019-02-26T03:42:16.684Z,17.14
2019-02-26T03:44:48.371Z,17.09
2019-02-26T03:47:20.416Z,17.09
2019-02-26T03:49:52.374Z,17.03
2019-02-26T03:52:24.637Z,17.05
2019-02-26T03:54:56.810Z,16.98
2019-02-26T03:57:28.538Z,16.98
2019-02-26T04:00:00.342Z,17.19
2019-02-26T04:02:32.330Z,17.32
2019-02-26T04:05:06.893Z,17.31
2019-02-26T04:07:37.435Z,17.07
2019-02-26T04:10:09.438Z,17.07
2019-02-26T04:12:42.264Z,17.09
2019-02-26T04:15:16.792Z,17.06
2019-02-26T04:17:47.551Z,17.06
2019-02-26T04:20:19.836Z,17.12
2019-02-26T04:22:53.332Z,17.12
2019-02-26T04:26:06.372Z,17.06
2019-02-26T04:29:09.434Z,17.04
2019-02-26T04:32:52.764Z,16.98
2019-02-26T04:35:55.515Z,16.97
2019-02-26T04:39:27.754Z,16.95
2019-02-26T04:43:04.550Z,16.95
2019-02-26T04:46:28.878Z,16.95
2019-02-26T04:49:00.405Z,16.91
2019-02-26T04:51:36.090Z,16.93
2019-02-26T04:54:05.805Z,16.97
2019-02-26T04:56:40.129Z,16.99
2019-02-26T04:59:12.537Z,16.96
2019-02-26T05:01:47.246Z,17.10
2019-02-26T05:04:18.316Z,17.07
2019-02-26T05:06:50.537Z,17.02
2019-02-26T05:09:24.719Z,17.00
2019-02-26T05:11:56.434Z,16.98
2019-02-26T05:14:28.432Z,16.94
2019-02-26T05:17:00.049Z,16.93
2019-02-26T05:19:31.783Z,16.94
2019-02-26T05:22:04.458Z,16.93
2019-02-26T05:24:38.666Z,16.98
2019-02-26T05:27:18.725Z,16.98
2019-02-26T05:29:52.527Z,16.91
2019-02-26T05:32:26.949Z,16.92
2019-02-26T05:34:57.331Z,16.87
2019-02-26T05:37:31.747Z,16.86
2019-02-26T05:40:02.819Z,16.87
2019-02-26T05:42:35.352Z,16.99
2019-02-26T05:45:09.375Z,16.97
2019-02-26T05:47:43.113Z,16.80
2019-02-26T05:50:16.723Z,16.80
2019-02-26T05:52:50.266Z,16.87
2019-02-26T05:55:23.711Z,16.89
2019-02-26T05:57:55.779Z,16.88
2019-02-26T06:00:31.744Z,16.94
2019-02-26T06:03:00.794Z,16.97
2019-02-26T06:05:31.514Z,16.91
2019-02-26T06:08:03.306Z,16.86
2019-02-26T06:10:34.798Z,16.93
2019-02-26T06:13:07.591Z,16.93
2019-02-26T06:15:40.638Z,16.94
2019-02-26T06:18:12.394Z,16.93
2019-02-26T06:20:45.780Z,16.93
2019-02-26T06:23:16.457Z,17.04
2019-02-26T06:25:48.310Z,16.93
2019-02-26T06:28:20.537Z,16.84
2019-02-26T06:33:11.602Z,16.89
2019-02-26T06:35:43.270Z,16.81
2019-02-26T06:38:14.827Z,16.77
2019-02-26T06:40:48.940Z,16.81
2019-02-26T06:43:21.022Z,16.82
2019-02-26T06:45:52.743Z,16.84
2019-02-26T06:48:25.059Z,16.83
2019-02-26T06:50:57.619Z,16.81
2019-02-26T06:53:30.584Z,16.83
2019-02-26T06:56:02.306Z,16.82
2019-02-26T06:58:35.786Z,16.82
2019-02-26T07:01:09.562Z,16.80
2019-02-26T07:03:41.786Z,16.93
2019-02-26T07:06:13.801Z,16.93
2019-02-26T07:08:47.205Z,16.93
2019-02-26T07:11:18.782Z,16.92
2019-02-26T07:13:49.784Z,16.88
2019-02-26T07:16:21.611Z,16.84
2019-02-26T07:18:53.375Z,16.76
2019-02-26T07:21:25.292Z,16.76
2019-02-26T07:23:58.638Z,16.86
2019-02-26T07:26:30.634Z,16.83
2019-02-26T07:29:03.445Z,16.82
2019-02-26T07:31:36.285Z,16.82
2019-02-26T07:34:07.887Z,16.83
2019-02-26T07:36:41.158Z,16.91
2019-02-26T07:39:15.506Z,16.91
2019-02-26T07:41:49.228Z,16.83
2019-02-26T07:44:21.717Z,16.83
2019-02-26T07:46:54.310Z,16.94
2019-02-26T07:49:25.892Z,17.00
2019-02-26T07:51:58.315Z,17.02
2019-02-26T07:54:31.316Z,16.97
2019-02-26T07:57:03.406Z,17.00
2019-02-26T07:59:36.926Z,17.02
2019-02-26T08:02:09.588Z,17.10
2019-02-26T08:04:43.623Z,17.02
2019-02-26T08:07:15.609Z,17.09
2019-02-26T08:09:47.365Z,17.08
2019-02-26T08:12:19.307Z,17.08
2019-02-26T08:14:58.405Z,17.13
2019-02-26T08:17:30.309Z,17.21
2019-02-26T08:20:04.424Z,17.19
2019-02-26T08:22:36.304Z,17.19
2019-02-26T08:25:08.765Z,17.20
2019-02-26T08:27:39.482Z,17.28
2019-02-26T08:30:18.793Z,17.25
2019-02-26T08:32:53.553Z,17.34
2019-02-26T08:35:23.297Z,17.43
2019-02-26T08:37:55.295Z,17.45
2019-02-26T08:40:27.018Z,17.55
2019-02-26T08:42:58.771Z,17.59
2019-02-26T08:45:31.033Z,17.57
2019-02-26T08:48:02.905Z,17.55
2019-02-26T08:50:36.197Z,17.59
2019-02-26T08:53:07.771Z,17.60
2019-02-26T08:55:39.315Z,17.59
2019-02-26T08:58:12.538Z,17.63
2019-02-26T09:00:43.467Z,17.67
2019-02-26T09:03:16.061Z,17.71
2019-02-26T09:05:49.427Z,17.81
2019-02-26T09:08:22.265Z,17.83
2019-02-26T09:10:54.365Z,17.82
2019-02-26T09:13:26.021Z,17.90
2019-02-26T09:15:58.788Z,17.92
2019-02-26T09:18:35.508Z,17.92
2019-02-26T09:21:06.998Z,18.00
2019-02-26T09:23:38.370Z,17.94
2019-02-26T09:26:10.750Z,17.94
2019-02-26T09:28:41.470Z,17.92
2019-02-26T09:31:14.188Z,17.97
2019-02-26T09:33:45.865Z,17.91
2019-02-26T09:36:20.505Z,17.93
2019-02-26T09:38:51.440Z,17.94
2019-02-26T09:41:23.312Z,17.77
2019-02-26T09:43:55.286Z,17.77
2019-02-26T09:46:27.058Z,17.88
2019-02-26T09:49:00.916Z,17.91
2019-02-26T09:51:33.012Z,18.02
2019-02-26T09:54:05.802Z,18.02
2019-02-26T09:56:37.710Z,17.95
2019-02-26T09:59:09.815Z,17.93
2019-02-26T10:01:42.827Z,17.95
2019-02-26T10:04:14.758Z,17.90
2019-02-26T10:06:47.511Z,17.91
2019-02-26T10:09:20.721Z,17.98
2019-02-26T10:11:52.755Z,17.98
2019-02-26T10:14:23.633Z,18.05
2019-02-26T10:16:57.000Z,18.02
2019-02-26T10:19:30.946Z,18.02
2019-02-26T10:22:03.545Z,18.13
2019-02-26T10:24:39.714Z,18.14
2019-02-26T10:27:11.472Z,18.17
2019-02-26T10:29:45.105Z,18.18
2019-02-26T10:32:16.306Z,18.20
2019-02-26T10:34:47.960Z,18.22
2019-02-26T10:37:20.463Z,18.23
2019-02-26T10:39:54.923Z,18.24
2019-02-26T10:42:25.798Z,18.24
2019-02-26T10:44:57.723Z,18.28
2019-02-26T10:47:29.898Z,18.32
2019-02-26T10:50:02.107Z,18.36
2019-02-26T10:52:33.798Z,18.32
2019-02-26T10:55:05.723Z,18.32
2019-02-26T10:57:38.379Z,18.34
2019-02-26T11:00:22.681Z,18.32
2019-02-26T11:02:54.441Z,18.37
2019-02-26T11:05:26.778Z,18.37
2019-02-26T11:08:01.882Z,18.35
2019-02-26T11:10:32.293Z,18.40
2019-02-26T11:13:03.985Z,18.41
2019-02-26T11:15:36.059Z,18.34
2019-02-26T11:18:08.237Z,18.38
2019-02-26T11:20:41.304Z,18.37
2019-02-26T11:23:14.271Z,18.44
2019-02-26T11:25:46.600Z,18.40
2019-02-26T11:28:18.427Z,18.47
2019-02-26T11:30:52.164Z,18.47
2019-02-26T11:33:23.744Z,18.43
2019-02-26T11:35:55.618Z,18.44
2019-02-26T11:38:27.378Z,18.43
2019-02-26T11:40:59.416Z,18.43
2019-02-26T11:43:31.070Z,18.47
2019-02-26T11:46:03.923Z,18.42
2019-02-26T11:48:36.308Z,18.49
2019-02-26T11:51:07.768Z,18.54
2019-02-26T11:53:39.779Z,18.53
2019-02-26T11:56:10.588Z,18.57
2019-02-26T11:58:42.435Z,18.46
2019-02-26T12:01:16.374Z,18.46
2019-02-26T12:03:48.367Z,18.61
2019-02-26T12:06:20.064Z,18.61
2019-02-26T12:08:51.799Z,18.58
2019-02-26T12:11:23.757Z,18.58
2019-02-26T12:13:55.331Z,18.56
2019-02-26T12:16:28.493Z,18.59
2019-02-26T12:19:01.353Z,18.64
2019-02-26T12:21:34.592Z,18.64
2019-02-26T12:24:09.110Z,18.70
2019-02-26T12:26:42.330Z,18.72
2019-02-26T12:29:16.149Z,18.73
2019-02-26T12:31:50.110Z,18.71
2019-02-26T12:34:23.694Z,18.69
2019-02-26T12:36:57.207Z,18.77
2019-02-26T12:39:31.305Z,18.83
2019-02-26T12:42:02.283Z,18.79
2019-02-26T12:44:37.448Z,18.84
2019-02-26T12:47:07.425Z,18.84
2019-02-26T12:49:42.220Z,18.84
2019-02-26T12:52:14.952Z,18.84
2019-02-26T12:54:46.384Z,18.79
2019-02-26T12:57:19.805Z,18.79
2019-02-26T12:59:51.804Z,18.81
2019-02-26T13:02:25.569Z,18.79
2019-02-26T13:04:55.942Z,18.76
2019-02-26T13:07:27.782Z,18.80
2019-02-26T13:10:02.757Z,18.80
2019-02-26T13:12:32.612Z,18.69
2019-02-26T13:15:06.491Z,18.69
2019-02-26T13:17:38.070Z,18.83
2019-02-26T13:20:14.791Z,18.81
2019-02-26T13:22:46.011Z,18.88
2019-02-26T13:25:21.429Z,18.91
2019-02-26T13:27:51.739Z,18.81
2019-02-26T13:30:23.732Z,18.80
2019-02-26T13:32:59.896Z,18.83
2019-02-26T13:35:28.834Z,18.89
2019-02-26T13:38:00.787Z,18.84
2019-02-26T13:40:38.083Z,18.82
2019-02-26T13:45:36.732Z,18.80
2019-02-26T13:48:07.459Z,18.84
2019-02-26T13:50:39.823Z,18.84
2019-02-26T13:53:11.826Z,18.79
2019-02-26T13:55:43.414Z,18.83
2019-02-26T13:58:15.061Z,18.78
2019-02-26T14:00:46.757Z,18.81
2019-02-26T14:03:18.705Z,18.91
2019-02-26T14:05:50.395Z,18.86
2019-02-26T14:08:23.290Z,18.96
2019-02-26T14:10:54.816Z,18.83
2019-02-26T14:13:27.297Z,18.87
2019-02-26T14:15:58.773Z,18.87
2019-02-26T14:18:30.461Z,18.90
2019-02-26T14:21:02.305Z,18.85
2019-02-26T14:23:35.098Z,18.89
2019-02-26T14:26:07.772Z,18.92
2019-02-26T14:28:38.486Z,18.85
2019-02-26T14:31:10.319Z,18.88
2019-02-26T14:33:42.401Z,18.89
2019-02-26T14:36:14.051Z,18.92
2019-02-26T14:38:46.308Z,18.91
2019-02-26T14:41:18.070Z,18.87
2019-02-26T14:43:49.755Z,18.89
2019-02-26T14:46:20.495Z,18.95
2019-02-26T14:48:52.308Z,18.94
2019-02-26T14:51:23.843Z,18.93
2019-02-26T14:53:55.748Z,18.92
2019-02-26T14:56:34.302Z,18.94
2019-02-26T14:59:11.416Z,18.92
2019-02-26T15:01:42.460Z,18.95
2019-02-26T15:04:14.682Z,19.66
2019-02-26T15:06:46.396Z,19.75
2019-02-26T15:09:18.315Z,19.75
2019-02-26T15:11:49.472Z,19.87
2019-02-26T15:14:21.310Z,19.79
2019-02-26T15:16:52.956Z,19.64
2019-02-26T15:19:24.755Z,19.44
2019-02-26T15:21:57.295Z,19.26
2019-02-26T15:24:29.655Z,18.99
2019-02-26T15:27:01.775Z,18.70
2019-02-26T15:29:33.790Z,18.70
2019-02-26T15:32:05.869Z,19.00
2019-02-26T15:34:37.435Z,19.60
2019-02-26T15:37:09.305Z,19.87
2019-02-26T15:39:40.910Z,20.14
2019-02-26T15:42:12.977Z,20.38
2019-02-26T15:44:45.320Z,20.55
2019-02-26T15:47:17.060Z,20.64
2019-02-26T15:49:48.767Z,20.78
2019-02-26T15:52:22.274Z,20.83
2019-02-26T15:54:57.507Z,20.88
2019-02-26T15:57:28.573Z,20.89
2019-02-26T16:00:01.350Z,20.87
2019-02-26T16:02:33.426Z,20.78
2019-02-26T16:05:05.310Z,20.78
2019-02-26T16:07:36.844Z,20.72
2019-02-26T16:10:10.313Z,20.69
2019-02-26T16:12:42.674Z,20.58
2019-02-26T16:15:14.064Z,20.58
2019-02-26T16:17:46.024Z,20.56
2019-02-26T16:20:20.060Z,20.46
2019-02-26T16:22:51.782Z,20.44
2019-02-26T16:25:23.420Z,20.39
2019-02-26T16:27:55.769Z,20.35
2019-02-26T16:30:26.481Z,20.31
2019-02-26T16:32:58.778Z,20.20
2019-02-26T16:35:30.770Z,20.10
2019-02-26T16:38:01.756Z,20.05
2019-02-26T16:40:34.014Z,20.01
2019-02-26T16:43:06.594Z,19.98
2019-02-26T16:45:38.622Z,19.82
2019-02-26T16:48:10.604Z,19.74
2019-02-26T16:50:45.574Z,19.67
2019-02-26T16:53:17.804Z,19.67
2019-02-26T16:55:49.780Z,19.67
2019-02-26T16:58:21.427Z,19.58
2019-02-26T17:00:53.298Z,19.49
2019-02-26T17:03:24.854Z,19.36
2019-02-26T17:05:56.737Z,19.27
2019-02-26T17:08:27.635Z,19.22
2019-02-26T17:10:59.425Z,19.58
2019-02-26T17:13:31.406Z,19.58
2019-02-26T17:16:03.312Z,19.59
2019-02-26T17:18:35.561Z,19.65
2019-02-26T17:21:07.306Z,19.63
2019-02-26T17:23:39.302Z,19.70
2019-02-26T17:26:11.567Z,19.69
2019-02-26T17:28:44.266Z,19.56
2019-02-26T17:31:16.077Z,19.56
2019-02-26T17:33:48.263Z,19.67
2019-02-26T17:36:19.881Z,20.04
2019-02-26T17:38:52.252Z,20.20
2019-02-26T17:41:24.048Z,20.36
2019-02-26T17:43:56.841Z,20.47
2019-02-26T17:46:29.310Z,20.54
2019-02-26T17:49:02.851Z,20.60
2019-02-26T17:51:35.311Z,20.63
2019-02-26T17:54:07.795Z,20.63
2019-02-26T17:56:41.749Z,20.61
2019-02-26T17:59:16.546Z,20.56
2019-02-26T18:01:46.292Z,20.53
2019-02-26T18:04:17.813Z,20.48
2019-02-26T18:06:49.598Z,20.42
2019-02-26T18:09:21.732Z,20.21
2019-02-26T18:11:52.503Z,20.21
2019-02-26T18:14:24.375Z,20.20
2019-02-26T18:16:56.337Z,20.11
2019-02-26T18:19:27.902Z,20.00
2019-02-26T18:21:59.737Z,19.95
2019-02-26T18:24:30.484Z,19.85
2019-02-26T18:27:03.124Z,19.74
2019-02-26T18:29:35.301Z,19.66
2019-02-26T18:32:10.804Z,19.54
2019-02-26T18:34:40.780Z,19.35
2019-02-26T18:37:11.479Z,19.35
2019-02-26T18:39:43.866Z,19.32
2019-02-26T18:42:15.746Z,19.27
2019-02-26T18:44:46.619Z,19.24
2019-02-26T18:47:18.366Z,19.14
2019-02-26T18:49:52.799Z,19.14
2019-02-26T18:52:24.397Z,19.12
2019-02-26T18:54:56.265Z,19.05
2019-02-26T18:57:28.784Z,18.95
2019-02-26T19:00:00.856Z,18.89
2019-02-26T19:02:33.540Z,18.88
2019-02-26T19:05:06.815Z,19.57
2019-02-26T19:07:38.741Z,19.57
2019-02-26T19:10:12.305Z,19.88
2019-02-26T19:12:44.307Z,20.00
2019-02-26T19:15:17.812Z,20.06
2019-02-26T19:17:53.018Z,20.03
2019-02-26T19:20:28.798Z,19.98
2019-02-26T19:23:02.084Z,19.93
2019-02-26T19:25:34.053Z,19.77
2019-02-26T19:28:05.814Z,19.74
2019-02-26T19:30:37.579Z,19.68
2019-02-26T19:33:08.636Z,19.67
2019-02-26T19:35:40.510Z,19.54
2019-02-26T19:38:12.509Z,19.48
2019-02-26T19:40:45.057Z,19.41
2019-02-26T19:43:16.742Z,19.35
2019-02-26T19:45:47.650Z,19.29
2019-02-26T19:48:19.594Z,18.97
2019-02-26T19:50:50.645Z,18.97
2019-02-26T19:53:21.928Z,18.98
2019-02-26T19:55:53.842Z,18.94
2019-02-26T19:58:25.753Z,18.97
2019-02-26T20:00:56.482Z,18.90
2019-02-26T20:03:39.282Z,18.78
2019-02-26T20:06:01.746Z,18.80
2019-02-26T20:08:32.590Z,18.98
2019-02-26T20:11:03.701Z,19.20
2019-02-26T20:13:34.659Z,19.25
2019-02-26T20:16:05.453Z,19.29
2019-02-26T20:18:37.292Z,19.28
2019-02-26T20:21:08.852Z,19.21
2019-02-26T20:23:41.971Z,19.12
2019-02-26T20:26:16.483Z,19.05
2019-02-26T20:28:47.887Z,19.05
2019-02-26T20:31:21.722Z,19.03
2019-02-26T20:33:53.254Z,19.03
2019-02-26T20:36:24.938Z,18.92
2019-02-26T20:38:56.771Z,18.95
2019-02-26T20:41:28.373Z,18.93
2019-02-26T20:44:00.298Z,18.85
2019-02-26T20:46:32.040Z,18.80
2019-02-26T20:49:04.360Z,18.76
2019-02-26T20:51:36.319Z,18.75
2019-02-26T20:54:11.402Z,18.78
2019-02-26T20:56:41.725Z,18.75
2019-02-26T20:59:12.490Z,18.72
2019-02-26T21:01:44.302Z,18.73
2019-02-26T21:04:16.298Z,18.74
2019-02-26T21:06:50.420Z,18.69
2019-02-26T21:09:21.753Z,18.72
2019-02-26T21:11:53.575Z,18.67
2019-02-26T21:14:26.267Z,18.63
2019-02-26T21:16:58.329Z,18.59
2019-02-26T21:19:30.747Z,18.63
2019-02-26T21:22:01.509Z,18.56
2019-02-26T21:24:34.635Z,18.54
2019-02-26T21:27:06.778Z,18.50
2019-02-26T21:29:39.671Z,18.50
2019-02-26T21:32:12.310Z,18.46
2019-02-26T21:34:47.372Z,18.47
2019-02-26T21:37:17.915Z,18.42
2019-02-26T21:39:49.778Z,18.42
2019-02-26T21:42:21.407Z,18.42
2019-02-26T21:44:53.315Z,18.42
2019-02-26T21:47:25.308Z,18.39
2019-02-26T21:49:57.314Z,18.36
2019-02-26T21:54:00.765Z,18.41
2019-02-26T21:56:33.165Z,18.35
2019-02-26T21:59:05.456Z,18.32
2019-02-26T22:01:37.828Z,18.28
2019-02-26T22:04:09.918Z,18.27
2019-02-26T22:06:44.473Z,18.29
2019-02-26T22:09:15.847Z,18.30
2019-02-26T22:11:50.464Z,18.27
2019-02-26T22:14:22.402Z,18.23
2019-02-26T22:16:57.045Z,18.23
2019-02-26T22:19:30.843Z,18.23
2019-02-26T22:22:03.367Z,18.20
2019-02-26T22:24:37.800Z,18.20
2019-02-26T22:27:11.103Z,18.19
2019-02-26T22:29:47.967Z,18.18
2019-02-26T22:32:18.937Z,18.19
2019-02-26T22:34:53.573Z,18.22
2019-02-26T22:37:25.689Z,18.22
2019-02-26T22:39:58.609Z,18.22
2019-02-26T22:42:31.027Z,18.18
2019-02-26T22:45:04.359Z,18.18
2019-02-26T22:47:40.230Z,18.15
2019-02-26T22:50:13.429Z,18.13
2019-02-26T22:52:45.888Z,18.12
2019-02-26T22:55:18.030Z,18.09
2019-02-26T22:57:50.498Z,18.08
2019-02-26T23:01:30.764Z,18.01
2019-02-26T23:04:03.916Z,18.01
2019-02-26T23:06:36.048Z,18.11
2019-02-26T23:09:12.865Z,18.05
2019-02-26T23:11:45.184Z,18.03
2019-02-26T23:14:17.874Z,18.01
2019-02-26T23:16:52.042Z,18.00
2019-02-26T23:19:25.097Z,18.03
2019-02-26T23:21:59.499Z,17.99
2019-02-26T23:24:32.343Z,18.01
2019-02-26T23:27:05.083Z,18.00
2019-02-26T23:29:37.375Z,18.03
2019-02-26T23:32:10.353Z,17.95
2019-02-26T23:34:42.897Z,17.95
2019-02-26T23:37:15.322Z,17.95
2019-02-26T23:39:47.890Z,17.90
2019-02-26T23:42:20.110Z,17.94
2019-02-26T23:44:52.916Z,17.90
2019-02-26T23:47:25.292Z,17.89
2019-02-26T23:49:57.962Z,17.88
2019-02-26T23:52:29.902Z,17.85
2019-02-26T23:55:02.501Z,17.92
2019-02-26T23:57:34.856Z,17.91
